Time;durP1;ratioP1;P1;durP2;ratioP2;P2;SDS_P1;SDS_P2;PMS_P1;PMS_P2;Temp;Humidity;BMP_temperature;BMP_pressure;BME280_temperature;BME280_humidity;BME280_pressure;Samples;Min_cycle;Max_cycle;Signal;HPM_P1;HPM_P2
2023/10/27 00:02:22;;;;;;;;;5.20;3.60;;;;;17.38;41.22;97913.81;5069465;28;8870;-70
2023/10/27 00:04:51;;;;;;;;;3.40;3.40;;;;;17.26;41.59;97916.53;5068929;28;8874;-69
2023/10/27 00:07:20;;;;;;;;;3.20;3.20;;;;;17.10;41.98;97914.16;5034007;28;8889;-71
2023/10/27 00:09:50;;;;;;;;;2.80;2.80;;;;;17.32;41.43;97913.41;5069070;28;8865;-70
2023/10/27 00:12:19;;;;;;;;;2.60;2.60;;;;;17.34;41.33;97914.13;5069127;28;8862;-71
2023/10/27 00:14:48;;;;;;;;;3.00;3.00;;;;;17.25;41.46;97917.44;5065085;28;8854;-68
2023/10/27 00:17:17;;;;;;;;;2.60;2.60;;;;;17.27;41.69;97912.91;5049009;28;8849;-72
2023/10/27 00:19:47;;;;;;;;;3.80;3.40;;;;;17.16;41.84;97905.72;5048859;28;8871;-69
2023/10/27 00:22:16;;;;;;;;;5.40;4.00;;;;;17.24;41.57;97911.31;5064410;28;8859;-71
2023/10/27 00:24:45;;;;;;;;;2.20;2.20;;;;;17.32;41.36;97911.59;5040015;28;8976;-70
2023/10/27 00:27:14;;;;;;;;;3.20;3.20;;;;;17.34;41.54;97911.50;5067278;28;8894;-72
2023/10/27 00:29:43;;;;;;;;;3.80;3.80;;;;;17.27;41.57;97911.13;5065833;28;8927;-70
2023/10/27 00:32:12;;;;;;;;;2.80;2.80;;;;;17.35;41.31;97903.41;5067329;28;8875;-71
2023/10/27 00:34:41;;;;;;;;;3.80;3.20;;;;;17.33;41.23;97909.81;5066939;28;8911;-71
2023/10/27 00:37:12;;;;;;;;;2.20;2.20;;;;;17.18;41.63;97912.59;5068921;28;8881;-70
2023/10/27 00:39:41;;;;;;;;;2.60;2.60;;;;;17.24;41.31;97911.31;5067118;28;8830;-70
2023/10/27 00:42:10;;;;;;;;;2.60;2.60;;;;;17.33;41.05;97910.66;5033426;28;8885;-69
2023/10/27 00:44:38;;;;;;;;;2.00;2.00;;;;;17.27;41.33;97908.47;5049218;28;8880;-69
2023/10/27 00:47:09;;;;;;;;;2.00;2.00;;;;;17.38;40.97;97907.63;5066766;28;8851;-69
2023/10/27 00:49:38;;;;;;;;;2.00;2.00;;;;;17.26;41.26;97904.09;5033777;28;8888;-68
2023/10/27 00:52:07;;;;;;;;;3.00;3.00;;;;;17.35;40.93;97906.06;5068203;28;8850;-68
2023/10/27 00:54:38;;;;;;;;;4.00;3.00;;;;;17.53;40.63;97895.00;5049680;28;8851;-70
2023/10/27 00:57:08;;;;;;;;;3.00;3.00;;;;;17.44;40.85;97898.34;5049120;28;9028;-69
2023/10/27 00:59:37;;;;;;;;;2.00;2.00;;;;;17.61;40.46;97897.06;5033586;28;8850;-70
2023/10/27 01:02:06;;;;;;;;;2.40;2.40;;;;;17.69;40.30;97890.22;5021058;28;8857;-69
2023/10/27 01:04:35;;;;;;;;;3.40;3.40;;;;;17.90;39.85;97886.88;5048202;28;8853;-71
2023/10/27 01:07:04;;;;;;;;;3.40;2.40;;;;;17.95;39.53;97895.34;5063200;28;8909;-70
2023/10/27 01:09:33;;;;;;;;;2.60;2.60;;;;;18.09;39.65;97887.16;5048325;28;8905;-70
2023/10/27 01:12:05;;;;;;;;;3.00;2.00;;;;;17.98;39.89;97887.94;5081962;28;8846;-69
2023/10/27 01:14:34;;;;;;;;;2.80;2.80;;;;;18.02;40.41;97885.06;5068029;28;8920;-70
2023/10/27 01:17:03;;;;;;;;;2.60;2.60;;;;;18.23;39.97;97877.22;5078498;28;8869;-71
2023/10/27 01:19:32;;;;;;;;;1.80;1.80;;;;;18.26;40.02;97883.16;5046251;28;8864;-68
2023/10/27 01:22:01;;;;;;;;;3.20;3.20;;;;;18.33;39.93;97883.53;5047611;28;8825;-69
2023/10/27 01:24:32;;;;;;;;;5.20;2.60;;;;;18.43;39.91;97880.97;5063401;28;8895;-68
2023/10/27 01:27:01;;;;;;;;;1.80;1.80;;;;;18.45;39.77;97879.88;5013400;28;8881;-70
2023/10/27 01:29:30;;;;;;;;;2.00;2.00;;;;;18.27;40.03;97879.53;5046570;28;8961;-70
2023/10/27 01:31:59;;;;;;;;;3.60;3.60;;;;;18.34;39.78;97874.56;5067004;28;8911;-70
2023/10/27 01:34:28;;;;;;;;;2.40;2.40;;;;;18.43;39.65;97873.00;5067505;28;8916;-69
2023/10/27 01:36:57;;;;;;;;;4.60;3.40;;;;;18.50;39.47;97869.72;5074707;28;8865;-70
2023/10/27 01:39:26;;;;;;;;;4.00;4.00;;;;;18.61;39.37;97871.53;5066556;28;8855;-70
2023/10/27 01:41:56;;;;;;;;;2.00;2.00;;;;;18.67;39.27;97865.69;5032346;28;8930;-70
2023/10/27 01:44:25;;;;;;;;;3.00;3.00;;;;;18.55;39.10;97856.91;5066556;28;8846;-69
2023/10/27 01:46:55;;;;;;;;;3.80;3.80;;;;;18.60;38.88;97850.34;5031454;28;8855;-68
2023/10/27 01:49:24;;;;;;;;;4.60;4.00;;;;;18.56;39.18;97849.75;5066819;28;8874;-71
2023/10/27 01:51:53;;;;;;;;;3.20;3.20;;;;;18.59;38.87;97846.84;5078438;28;8854;-69
2023/10/27 01:54:22;;;;;;;;;4.00;2.80;;;;;18.59;38.67;97841.53;5049059;28;8877;-70
2023/10/27 01:56:51;;;;;;;;;4.80;3.20;;;;;18.40;38.88;97839.47;5066466;28;8838;-70
2023/10/27 01:59:22;;;;;;;;;4.80;3.00;;;;;18.43;38.97;97835.75;5066213;28;8851;-69
2023/10/27 02:01:51;;;;;;;;;3.60;3.40;;;;;18.34;39.12;97835.50;5066295;28;8870;-71
2023/10/27 02:04:20;;;;;;;;;5.40;4.00;;;;;18.16;39.25;97829.03;5051345;28;8887;-72
2023/10/27 02:06:49;;;;;;;;;2.60;2.60;;;;;18.20;39.11;97826.97;5030263;28;8852;-70
2023/10/27 02:09:18;;;;;;;;;5.20;3.40;;;;;18.26;39.07;97821.97;5046066;28;8869;-71
2023/10/27 02:11:47;;;;;;;;;4.60;3.80;;;;;18.08;39.29;97818.13;5046222;28;8852;-70
2023/10/27 02:14:18;;;;;;;;;2.20;2.20;;;;;18.15;39.02;97814.03;5021104;28;8846;-70
2023/10/27 02:16:49;;;;;;;;;4.60;3.20;;;;;18.21;38.79;97813.53;5067838;28;8892;-68
2023/10/27 02:19:17;;;;;;;;;4.00;3.40;;;;;18.07;38.91;97816.47;5076770;28;9620;-70
2023/10/27 02:21:47;;;;;;;;;2.40;2.40;;;;;18.13;39.06;97818.63;5062540;28;8904;-68
2023/10/27 02:24:15;;;;;;;;;3.60;3.60;;;;;18.08;39.16;97815.47;5053362;28;8846;-70
2023/10/27 02:26:44;;;;;;;;;2.60;2.60;;;;;18.09;39.08;97812.69;5066068;28;8977;-69
2023/10/27 02:29:13;;;;;;;;;3.20;3.20;;;;;18.06;39.08;97814.75;5066540;28;8878;-68
2023/10/27 02:31:43;;;;;;;;;2.80;2.80;;;;;18.16;38.88;97815.72;5011608;28;9668;-71
2023/10/27 02:34:13;;;;;;;;;4.80;2.80;;;;;18.14;38.88;97815.84;5025076;28;8874;-68
2023/10/27 02:36:42;;;;;;;;;4.00;4.00;;;;;18.25;38.69;97811.47;5027956;28;8929;-69
2023/10/27 02:39:11;;;;;;;;;3.60;3.60;;;;;18.34;38.51;97808.91;5028271;28;8871;-70
2023/10/27 02:41:40;;;;;;;;;3.20;2.60;;;;;18.10;38.68;97800.22;5028336;28;8894;-69
2023/10/27 02:44:09;;;;;;;;;4.60;3.60;;;;;18.16;38.49;97797.09;5028120;28;8863;-71
2023/10/27 02:46:38;;;;;;;;;5.00;5.00;;;;;18.14;38.74;97796.38;5028125;28;8859;-70
2023/10/27 02:49:07;;;;;;;;;3.60;3.60;;;;;18.05;38.62;97797.13;5009632;28;8908;-69
2023/10/27 02:51:38;;;;;;;;;4.20;4.20;;;;;17.88;38.88;97798.44;5028054;28;8992;-71
2023/10/27 02:54:07;;;;;;;;;5.20;4.60;;;;;17.85;38.97;97798.66;5044695;28;8860;-70
2023/10/27 02:56:36;;;;;;;;;4.00;4.00;;;;;17.98;38.62;97794.06;5028047;28;9601;-70
2023/10/27 02:59:05;;;;;;;;;4.60;3.60;;;;;17.94;38.70;97792.63;5027871;28;9699;-68
2023/10/27 03:01:34;;;;;;;;;4.80;4.80;;;;;17.84;38.96;97787.19;4994873;28;8872;-71
2023/10/27 03:04:04;;;;;;;;;3.20;3.00;;;;;18.07;38.63;97787.22;5082068;28;8888;-69
2023/10/27 03:06:33;;;;;;;;;1.60;1.60;;;;;18.06;38.48;97785.50;5050046;28;8849;-69
2023/10/27 03:09:03;;;;;;;;;2.20;2.20;;;;;18.02;38.60;97776.06;5072964;28;8919;-69
2023/10/27 03:11:32;;;;;;;;;2.20;2.00;;;;;17.87;38.67;97765.69;5070234;28;9600;-70
2023/10/27 03:14:01;;;;;;;;;1.60;1.60;;;;;17.97;38.68;97768.47;5085718;28;8865;-69
2023/10/27 03:16:31;;;;;;;;;2.20;2.20;;;;;18.02;38.24;97760.94;5085396;28;8882;-71
2023/10/27 03:18:59;;;;;;;;;3.00;3.00;;;;;18.17;38.09;97750.91;5085673;28;8862;-67
2023/10/27 03:21:29;;;;;;;;;2.80;2.80;;;;;18.05;38.02;97746.59;5077938;28;8846;-70
2023/10/27 03:23:58;;;;;;;;;4.00;2.40;;;;;18.04;38.17;97748.41;5065375;28;8956;-70
2023/10/27 03:26:28;;;;;;;;;2.80;2.80;;;;;18.13;38.04;97741.50;5034040;28;8854;-71
2023/10/27 03:28:57;;;;;;;;;2.00;2.00;;;;;18.02;38.04;97737.00;5034952;28;8877;-68
2023/10/27 03:31:26;;;;;;;;;2.20;2.20;;;;;18.07;38.09;97734.03;5080559;28;8853;-68
2023/10/27 03:33:55;;;;;;;;;1.80;1.80;;;;;18.10;37.99;97728.44;5069913;28;8891;-69
2023/10/27 03:36:25;;;;;;;;;7.40;6.80;;;;;18.08;38.16;97723.28;5068295;28;8858;-69
2023/10/27 03:38:54;;;;;;;;;2.40;1.40;;;;;18.10;37.81;97720.47;5050998;28;8901;-69
2023/10/27 03:41:23;;;;;;;;;1.80;1.80;;;;;18.18;37.85;97711.91;5064029;28;8888;-69
2023/10/27 03:43:53;;;;;;;;;0.00;0.00;;;;;18.41;37.36;97708.16;5033375;28;8882;-69
2023/10/27 03:46:22;;;;;;;;;2.00;2.00;;;;;18.59;36.93;97700.50;5066886;28;8870;-68
2023/10/27 03:48:52;;;;;;;;;2.00;1.80;;;;;18.25;37.50;97715.72;5034282;28;8903;-69
2023/10/27 03:51:21;;;;;;;;;1.00;1.00;;;;;18.32;37.24;97704.44;5066789;28;8866;-69
2023/10/27 03:53:50;;;;;;;;;1.00;1.00;;;;;18.15;37.54;97703.16;5066687;28;8866;-69
2023/10/27 03:56:19;;;;;;;;;1.00;0.80;;;;;18.01;37.73;97695.47;5065263;28;8863;-70
2023/10/27 03:58:48;;;;;;;;;2.20;1.00;;;;;18.31;37.41;97694.78;5066479;28;8860;-70
2023/10/27 04:01:19;;;;;;;;;2.00;2.00;;;;;18.29;37.41;97693.22;5066497;28;8948;-69
2023/10/27 04:03:49;;;;;;;;;1.80;1.80;;;;;18.19;37.50;97679.84;5046348;28;9670;-69
2023/10/27 04:06:18;;;;;;;;;2.00;1.00;;;;;18.11;37.64;97664.50;5046143;28;8973;-70
2023/10/27 04:08:47;;;;;;;;;21.00;19.80;;;;;18.37;37.38;97661.53;5046267;28;8978;-71
2023/10/27 04:11:16;;;;;;;;;2.20;1.20;;;;;18.50;36.97;97658.69;5011583;28;8858;-70
2023/10/27 04:13:44;;;;;;;;;18.60;18.20;;;;;18.75;36.73;97655.63;5027048;28;8948;-69
2023/10/27 04:16:14;;;;;;;;;2.00;2.00;;;;;18.64;36.82;97647.69;5042977;28;8940;-70
2023/10/27 04:18:44;;;;;;;;;1.00;1.00;;;;;18.83;36.58;97641.69;5009752;28;8852;-70
2023/10/27 04:21:13;;;;;;;;;1.00;1.00;;;;;18.86;36.25;97630.78;5026339;28;9058;-71
2023/10/27 04:23:42;;;;;;;;;0.00;0.00;;;;;18.99;36.08;97627.91;5045788;28;8845;-71
2023/10/27 04:26:12;;;;;;;;;9.00;8.60;;;;;19.12;35.95;97617.88;5044858;28;8927;-68
2023/10/27 04:28:41;;;;;;;;;3.00;3.00;;;;;19.17;35.88;97620.13;5044694;28;8879;-72
2023/10/27 04:31:10;;;;;;;;;2.00;2.00;;;;;19.26;35.77;97611.34;5012727;28;8987;-70
2023/10/27 04:33:39;;;;;;;;;4.00;3.40;;;;;19.30;35.37;97607.41;5045914;28;9202;-69
2023/10/27 04:36:10;;;;;;;;;3.00;3.00;;;;;19.38;35.70;97613.91;5067311;28;8873;-70
2023/10/27 04:38:38;;;;;;;;;1.00;1.00;;;;;19.32;35.33;97615.28;5049675;28;8858;-71
2023/10/27 04:41:08;;;;;;;;;0.00;0.00;;;;;19.36;35.55;97600.72;5068175;28;8842;-70
2023/10/27 04:43:37;;;;;;;;;2.00;2.00;;;;;19.39;35.26;97610.28;5052108;28;8967;-69
2023/10/27 04:46:08;;;;;;;;;1.00;1.00;;;;;19.38;35.41;97598.75;5034315;28;8964;-70
2023/10/27 04:48:36;;;;;;;;;0.00;0.00;;;;;19.19;35.90;97586.22;5067991;28;8866;-70
2023/10/27 04:51:05;;;;;;;;;1.00;1.00;;;;;19.38;35.57;97582.75;5066572;28;8846;-69
2023/10/27 04:53:36;;;;;;;;;1.00;1.00;;;;;19.48;35.50;97577.47;5067585;28;8888;-72
2023/10/27 04:56:06;;;;;;;;;0.00;0.00;;;;;19.47;35.37;97578.44;5068248;28;8928;-71
2023/10/27 04:58:34;;;;;;;;;2.00;2.00;;;;;19.43;35.69;97575.22;5055448;28;8877;-70
2023/10/27 05:01:04;;;;;;;;;1.00;1.00;;;;;19.51;35.75;97572.72;5055799;28;8874;-71
2023/10/27 05:03:33;;;;;;;;;1.00;1.00;;;;;19.57;35.43;97579.34;5067786;28;9622;-69
2023/10/27 05:06:08;;;;;;;;;2.00;2.00;;;;;19.69;35.70;97572.09;5067557;28;8827;-73
2023/10/27 05:08:39;;;;;;;;;2.20;2.00;;;;;19.62;35.57;97573.59;5032038;28;8880;-69
2023/10/27 05:11:08;;;;;;;;;1.00;1.00;;;;;19.55;35.79;97581.28;5067439;28;8854;-68
2023/10/27 05:13:36;;;;;;;;;1.60;1.60;;;;;19.56;35.32;97572.34;5057911;28;8861;-71
2023/10/27 05:16:07;;;;;;;;;1.60;0.00;;;;;19.50;35.51;97568.38;5051240;28;8868;-70
2023/10/27 05:18:36;;;;;;;;;2.80;2.80;;;;;19.37;35.86;97551.78;5066619;28;8872;-69
2023/10/27 05:21:05;;;;;;;;;3.60;3.60;;;;;19.21;36.32;97554.97;5080689;28;8846;-70
2023/10/27 05:23:34;;;;;;;;;1.40;1.40;;;;;19.30;36.19;97563.97;5067555;28;8846;-70
2023/10/27 05:26:05;;;;;;;;;0.80;0.80;;;;;19.33;36.17;97567.19;5066650;28;8885;-70
2023/10/27 05:28:33;;;;;;;;;1.00;1.00;;;;;19.34;36.39;97565.38;5032738;28;9046;-71
2023/10/27 05:31:03;;;;;;;;;3.00;3.00;;;;;19.34;36.31;97554.72;5065995;28;8963;-71
2023/10/27 05:33:32;;;;;;;;;3.60;3.60;;;;;19.31;36.47;97563.84;5067500;28;8858;-72
2023/10/27 05:36:01;;;;;;;;;5.00;5.00;;;;;19.10;36.93;97566.59;5066656;28;8839;-70
2023/10/27 05:38:30;;;;;;;;;3.20;2.80;;;;;18.81;37.82;97560.28;5031705;28;8892;-70
2023/10/27 05:40:59;;;;;;;;;1.60;1.60;;;;;18.88;37.56;97558.78;5067775;28;8854;-70
2023/10/27 05:43:29;;;;;;;;;1.80;1.80;;;;;18.90;37.63;97540.84;5067198;28;8838;-71
2023/10/27 05:45:58;;;;;;;;;1.00;1.00;;;;;19.15;36.98;97536.88;5066905;28;8850;-69
2023/10/27 05:48:27;;;;;;;;;6.40;6.40;;;;;18.93;37.54;97541.44;5065737;28;8888;-73
2023/10/27 05:50:56;;;;;;;;;3.80;3.80;;;;;18.99;37.64;97539.19;5067675;28;8847;-69
2023/10/27 05:53:25;;;;;;;;;3.60;2.60;;;;;19.00;37.32;97544.38;5066676;28;8854;-74
2023/10/27 05:55:55;;;;;;;;;2.40;2.40;;;;;19.17;37.33;97540.22;5066883;28;8880;-77
2023/10/27 05:58:23;;;;;;;;;3.00;3.00;;;;;19.36;37.04;97546.59;5066530;28;8947;-77
2023/10/27 06:00:54;;;;;;;;;10.80;9.80;;;;;19.15;37.58;97546.69;5029262;28;8841;-76
2023/10/27 06:03:26;;;;;;;;;2.00;2.00;;;;;19.36;36.81;97544.75;5053688;28;8846;-77
2023/10/27 06:05:55;;;;;;;;;1.40;1.40;;;;;19.32;36.94;97549.53;5036363;28;8877;-75
2023/10/27 06:08:24;;;;;;;;;2.00;2.00;;;;;19.39;36.99;97546.34;5071032;28;8838;-74
2023/10/27 06:10:53;;;;;;;;;4.80;4.40;;;;;19.30;37.72;97553.31;5071911;28;8846;-77
2023/10/27 06:13:22;;;;;;;;;2.40;2.40;;;;;19.35;38.04;97547.56;5070573;28;8866;-79
2023/10/27 06:15:51;;;;;;;;;49.75;42.50;;;;;19.15;38.51;97544.03;5071571;28;8866;-78
2023/10/27 06:18:21;;;;;;;;;9.00;9.00;;;;;19.29;38.37;97549.81;5070625;28;8878;-76
2023/10/27 06:20:50;;;;;;;;;2.00;2.00;;;;;18.92;39.27;97552.22;5070491;28;8850;-79
2023/10/27 06:23:19;;;;;;;;;3.00;3.00;;;;;18.52;40.06;97548.47;5071263;28;8866;-77
2023/10/27 06:25:48;;;;;;;;;4.00;2.00;;;;;18.57;40.00;97544.59;5071072;28;9070;-78
2023/10/27 06:28:17;;;;;;;;;5.80;5.80;;;;;18.69;39.56;97531.06;5065514;28;8883;-76
2023/10/27 06:30:47;;;;;;;;;4.20;4.20;;;;;18.81;39.40;97525.69;5070242;28;8858;-77
2023/10/27 06:33:16;;;;;;;;;3.20;3.20;;;;;18.75;39.10;97527.03;5070815;28;8896;-77
2023/10/27 06:35:49;;;;;;;;;1.00;1.00;;;;;18.57;39.34;97540.09;5070000;28;8955;-79
2023/10/27 06:38:18;;;;;;;;;1.00;1.00;;;;;18.37;39.74;97536.50;5076824;28;9130;-77
2023/10/27 06:40:47;;;;;;;;;1.80;1.80;;;;;18.39;39.71;97531.06;5086031;28;8876;-77
2023/10/27 06:43:16;;;;;;;;;3.20;3.20;;;;;18.53;39.58;97523.56;5060857;28;8871;-79
2023/10/27 06:45:45;;;;;;;;;6.60;5.60;;;;;18.51;39.60;97519.34;5065705;28;8888;-78
2023/10/27 06:48:14;;;;;;;;;4.00;3.60;;;;;18.60;39.45;97502.59;5071093;28;8913;-79
2023/10/27 06:50:43;;;;;;;;;2.00;2.00;;;;;18.59;39.29;97500.06;5070936;28;8869;-78
2023/10/27 06:53:13;;;;;;;;;2.00;2.00;;;;;18.54;39.28;97505.78;5069837;28;8866;-79
2023/10/27 06:55:43;;;;;;;;;1.80;1.80;;;;;18.65;39.00;97503.03;5071058;28;8838;-76
2023/10/27 06:58:11;;;;;;;;;5.60;5.20;;;;;18.95;38.58;97498.72;5065270;28;8848;-77
2023/10/27 07:00:41;;;;;;;;;1.80;1.80;;;;;18.97;38.55;97490.56;5060660;28;8855;-76
2023/10/27 07:03:10;;;;;;;;;6.00;6.00;;;;;19.21;38.14;97487.53;5070475;28;8870;-77
2023/10/27 07:05:59;;;;;;;;;3.40;3.40;;;;;19.45;37.77;97477.34;5074334;28;8873;-80
2023/10/27 07:08:30;;;;;;;;;3.40;3.40;;;;;19.56;37.33;97478.22;5071774;28;8880;-78
2023/10/27 07:10:59;;;;;;;;;2.20;2.20;;;;;19.51;37.45;97466.13;5072270;28;8866;-80
2023/10/27 07:13:30;;;;;;;;;2.00;2.00;;;;;19.63;37.50;97463.34;5068203;28;8838;-72
2023/10/27 07:15:59;;;;;;;;;2.00;2.00;;;;;19.82;37.14;97451.81;5069151;28;8858;-70
2023/10/27 07:18:27;;;;;;;;;2.80;2.00;;;;;19.86;37.11;97446.06;5070527;28;8866;-71
2023/10/27 07:20:57;;;;;;;;;1.00;1.00;;;;;19.96;37.21;97445.22;5070467;28;8846;-74
2023/10/27 07:23:25;;;;;;;;;1.60;1.60;;;;;19.96;37.18;97443.38;5070069;28;8842;-71
2023/10/27 07:25:56;;;;;;;;;1.00;1.00;;;;;20.14;36.81;97440.84;5050603;28;8854;-71
2023/10/27 07:28:24;;;;;;;;;1.40;1.40;;;;;19.99;37.33;97445.78;5064711;28;9003;-71
2023/10/27 07:30:53;;;;;;;;;2.00;1.40;;;;;19.99;37.23;97443.09;5049948;28;8861;-70
2023/10/27 07:33:22;;;;;;;;;2.00;2.00;;;;;20.06;37.04;97449.53;5049821;28;8988;-70
2023/10/27 07:35:51;;;;;;;;;2.20;2.20;;;;;20.10;37.40;97450.94;5067398;28;8912;-69
2023/10/27 07:38:20;;;;;;;;;0.60;0.60;;;;;20.12;37.32;97450.78;5069677;28;9013;-70
2023/10/27 07:40:49;;;;;;;;;3.80;3.80;;;;;20.15;37.41;97460.34;5068324;28;8886;-70
2023/10/27 07:43:19;;;;;;;;;2.40;2.40;;;;;20.26;37.28;97471.69;5068323;28;9031;-70
2023/10/27 07:45:49;;;;;;;;;8.80;8.80;;;;;20.12;37.57;97469.44;5030667;28;8993;-70
2023/10/27 07:48:17;;;;;;;;;7.60;5.40;;;;;20.08;37.22;97470.72;5049627;28;9019;-70
2023/10/27 07:50:47;;;;;;;;;5.20;4.80;;;;;20.12;37.38;97473.94;5057284;28;8877;-71
2023/10/27 07:53:16;;;;;;;;;4.00;4.00;;;;;19.93;38.04;97480.16;5064525;28;8864;-70
2023/10/27 07:55:45;;;;;;;;;3.00;3.00;;;;;19.76;38.65;97476.38;5050203;28;9622;-70
2023/10/27 07:58:14;;;;;;;;;3.00;3.00;;;;;19.88;38.49;97481.44;5034401;28;8854;-71
2023/10/27 08:00:44;;;;;;;;;3.20;3.20;;;;;19.51;38.76;97482.13;5068941;28;8929;-70
2023/10/27 08:03:14;;;;;;;;;2.40;2.40;;;;;19.46;39.00;97473.69;5068969;28;8897;-71
2023/10/27 08:05:44;;;;;;;;;18.40;17.20;;;;;19.47;39.17;97485.19;5067220;28;8842;-71
2023/10/27 08:08:13;;;;;;;;;5.20;4.00;;;;;19.57;39.08;97485.22;5068700;28;8858;-70
2023/10/27 08:10:44;;;;;;;;;3.00;3.00;;;;;19.57;38.85;97475.41;5068618;28;8818;-70
2023/10/27 08:13:13;;;;;;;;;5.00;5.00;;;;;19.42;39.30;97474.94;5050559;28;8977;-71
2023/10/27 08:15:42;;;;;;;;;3.00;3.00;;;;;19.41;39.68;97467.94;5068663;28;8944;-70
2023/10/27 08:18:13;;;;;;;;;3.00;3.00;;;;;19.80;38.63;97465.31;5068946;28;8850;-71
2023/10/27 08:20:42;;;;;;;;;9.00;6.00;;;;;19.89;38.61;97472.44;5033503;28;8835;-72
2023/10/27 08:23:11;;;;;;;;;4.60;3.00;;;;;19.69;38.80;97463.63;5055067;28;8833;-77
2023/10/27 08:25:40;;;;;;;;;3.60;3.60;;;;;19.87;38.46;97450.41;5069996;28;8890;-78
2023/10/27 08:28:11;;;;;;;;;6.40;4.00;;;;;20.05;38.02;97445.19;5053596;28;8974;-80
2023/10/27 08:30:40;;;;;;;;;5.80;5.40;;;;;20.25;38.06;97432.66;5028516;28;8878;-77
2023/10/27 08:33:09;;;;;;;;;3.20;3.00;;;;;20.35;37.70;97432.66;5061558;28;8854;-76
2023/10/27 08:35:40;;;;;;;;;3.00;3.00;;;;;20.55;37.26;97421.88;5067500;28;8881;-77
2023/10/27 08:38:09;;;;;;;;;3.40;3.40;;;;;20.66;37.48;97417.19;5069811;28;8862;-81
2023/10/27 08:40:38;;;;;;;;;3.00;3.00;;;;;20.66;37.38;97395.00;5068623;28;8854;-81
2023/10/27 08:43:07;;;;;;;;;3.00;3.00;;;;;20.78;37.54;97398.28;5067388;28;9102;-79
2023/10/27 08:45:37;;;;;;;;;4.00;4.00;;;;;20.74;37.41;97423.63;5023819;28;8847;-79
2023/10/27 08:48:06;;;;;;;;;3.80;3.00;;;;;20.84;37.45;97425.25;5027688;28;8855;-81
2023/10/27 08:50:41;;;;;;;;;2.60;2.40;;;;;20.86;37.15;97441.97;4966653;28;8855;-79
2023/10/27 08:53:11;;;;;;;;;3.00;3.00;;;;;20.83;37.53;97450.25;5026178;28;8883;-74
2023/10/27 08:55:41;;;;;;;;;3.00;3.00;;;;;20.90;37.15;97442.50;4993869;28;8863;-79
2023/10/27 08:58:10;;;;;;;;;3.20;3.20;;;;;20.94;37.34;97440.41;5006431;28;8861;-78
2023/10/27 09:00:39;;;;;;;;;4.00;3.00;;;;;20.93;37.20;97444.06;4989278;28;9619;-78
2023/10/27 09:03:15;;;;;;;;;2.40;2.40;;;;;20.87;37.20;97437.44;5014558;28;8849;-80
2023/10/27 09:05:46;;;;;;;;;3.00;2.60;;;;;21.05;37.32;97424.19;5046378;28;9106;-80
2023/10/27 09:08:14;;;;;;;;;3.40;3.40;;;;;21.06;37.17;97425.84;5000930;28;8856;-76
2023/10/27 09:10:46;;;;;;;;;4.40;3.00;;;;;21.14;36.84;97428.59;5056489;28;8979;-78
2023/10/27 09:13:23;;;;;;;;;5.40;4.40;;;;;21.16;37.02;97415.09;5065039;28;8876;-78
2023/10/27 09:15:52;;;;;;;;;2.60;2.40;;;;;21.14;36.80;97417.91;5049830;28;8838;-78
2023/10/27 09:18:35;;;;;;;;;3.60;2.40;;;;;21.27;36.88;97412.19;5035554;28;8857;-77
2023/10/27 09:21:06;;;;;;;;;1.20;1.20;;;;;21.20;37.17;97408.44;4990122;28;8861;-78
2023/10/27 09:23:46;;;;;;;;;4.00;3.00;;;;;21.29;36.84;97401.34;5011021;28;8966;-77
2023/10/27 09:26:16;;;;;;;;;2.40;2.40;;;;;21.20;36.84;97395.94;5059115;28;8850;-79
2023/10/27 09:28:45;;;;;;;;;2.40;1.40;;;;;21.18;36.89;97397.94;5064968;28;8866;-80
2023/10/27 09:31:33;;;;;;;;;3.00;2.60;;;;;21.35;36.88;97396.25;5066228;28;8846;-77
2023/10/27 09:34:17;;;;;;;;;2.60;2.60;;;;;21.44;36.70;97397.97;5067268;28;8955;-77
2023/10/27 09:36:49;;;;;;;;;3.00;3.00;;;;;21.35;36.78;97398.06;5068841;28;8866;-80
2023/10/27 09:39:20;;;;;;;;;2.60;2.60;;;;;21.36;36.61;97395.25;5070116;28;8863;-76
2023/10/27 09:41:56;;;;;;;;;3.40;3.40;;;;;21.38;37.03;97392.41;5077666;28;8869;-81
2023/10/27 09:44:35;;;;;;;;;2.60;2.40;;;;;21.47;37.20;97385.31;5073858;28;8869;-78
2023/10/27 09:47:11;;;;;;;;;2.40;2.40;;;;;21.53;37.26;97385.53;5069895;28;8831;-80
2023/10/27 09:49:41;;;;;;;;;3.00;3.00;;;;;21.47;37.33;97383.47;5071660;28;10097;-79
2023/10/27 09:52:19;;;;;;;;;2.80;2.60;;;;;21.57;37.44;97383.38;5072991;28;9616;-79
2023/10/27 09:54:51;;;;;;;;;4.80;3.80;;;;;21.54;37.16;97383.69;5054845;28;9222;-79
2023/10/27 09:57:31;;;;;;;;;3.00;2.40;;;;;21.54;36.99;97383.69;5070991;28;8858;-81
2023/10/27 10:00:02;;;;;;;;;3.00;3.00;;;;;21.39;37.33;97383.38;5073051;28;8889;-79
2023/10/27 10:02:41;;;;;;;;;3.60;3.00;;;;;21.47;37.43;97375.47;5056785;28;8903;-82
2023/10/27 10:05:11;;;;;;;;;7.40;3.80;;;;;21.56;37.25;97374.53;5052846;28;8868;-79
2023/10/27 10:07:44;;;;;;;;;4.20;3.60;;;;;21.58;37.08;97369.03;5052822;28;9010;-78
2023/10/27 10:10:29;;;;;;;;;2.20;2.20;;;;;21.60;36.93;97364.41;5056993;28;8983;-77
2023/10/27 10:13:00;;;;;;;;;5.00;4.00;;;;;21.66;36.69;97353.06;5075057;28;8885;-78
2023/10/27 10:15:29;;;;;;;;;5.80;4.20;;;;;21.63;37.00;97348.03;5071727;28;8855;-80
2023/10/27 10:17:58;;;;;;;;;6.00;3.00;;;;;21.57;36.76;97343.28;5037403;28;8827;-81
2023/10/27 10:21:07;;;;;;;;;5.80;4.80;;;;;21.81;36.50;97337.31;5072508;28;8854;-80
2023/10/27 10:24:17;;;;;;;;;2.60;2.60;;;;;21.82;36.21;97330.94;5071462;28;8979;-81
2023/10/27 10:27:12;;;;;;;;;4.00;3.60;;;;;21.85;36.48;97327.97;5070305;28;8872;-79
2023/10/27 10:29:42;;;;;;;;;3.40;2.60;;;;;21.78;36.32;97329.56;5036911;28;8846;-80
2023/10/27 10:32:31;;;;;;;;;2.00;2.00;;;;;21.80;36.74;97311.53;5059519;28;8842;-80
2023/10/27 10:35:27;;;;;;;;;5.40;4.80;;;;;21.82;36.68;97314.88;5054251;28;8854;-80
2023/10/27 10:37:56;;;;;;;;;2.60;2.60;;;;;21.73;36.63;97308.69;5049468;28;8888;-80
2023/10/27 10:40:27;;;;;;;;;6.00;3.40;;;;;21.74;36.54;97313.00;5051721;28;8851;-79
2023/10/27 10:43:27;;;;;;;;;3.60;3.60;;;;;21.70;36.56;97313.50;5067858;28;8960;-82
2023/10/27 10:45:58;;;;;;;;;5.40;5.40;;;;;21.60;36.99;97301.06;5068603;28;8895;-80
2023/10/27 10:48:27;;;;;;;;;7.20;6.20;;;;;21.61;36.79;97293.88;5050523;28;8820;-79
2023/10/27 10:51:03;;;;;;;;;5.20;3.60;;;;;21.37;37.68;97300.72;5050737;28;9057;-78
2023/10/27 10:53:33;;;;;;;;;3.00;3.00;;;;;21.48;37.48;97288.09;5051703;28;8848;-78
2023/10/27 10:56:02;;;;;;;;;6.00;4.00;;;;;21.57;37.44;97284.47;5022049;28;8836;-78
2023/10/27 10:58:34;;;;;;;;;4.40;4.40;;;;;21.34;37.90;97274.28;5069477;28;8890;-76
2023/10/27 11:01:04;;;;;;;;;3.00;3.00;;;;;21.41;37.60;97275.34;5068053;28;8828;-81
2023/10/27 11:03:34;;;;;;;;;5.00;5.00;;;;;21.43;37.32;97265.34;5075861;28;8911;-77
2023/10/27 11:06:05;;;;;;;;;3.40;2.80;;;;;21.38;37.24;97264.97;5071075;28;8838;-78
2023/10/27 11:08:37;;;;;;;;;2.20;2.20;;;;;21.29;37.49;97265.91;5070767;28;8884;-77
2023/10/27 11:11:08;;;;;;;;;4.20;4.20;;;;;21.41;37.45;97256.66;5071357;28;9700;-77
2023/10/27 11:13:44;;;;;;;;;2.00;2.00;;;;;21.30;37.37;97258.75;5069350;28;9005;-80
2023/10/27 11:16:17;;;;;;;;;8.20;7.20;;;;;21.12;37.81;97266.78;5051720;28;8842;-79
2023/10/27 11:18:47;;;;;;;;;3.00;3.00;;;;;21.41;37.30;97269.19;5069724;28;8862;-80
2023/10/27 11:21:17;;;;;;;;;5.00;5.00;;;;;21.26;37.11;97267.06;5070519;28;8834;-81
2023/10/27 11:23:47;;;;;;;;;2.00;2.00;;;;;21.56;36.81;97274.75;5035551;28;8858;-78
2023/10/27 11:26:18;;;;;;;;;2.60;2.60;;;;;21.52;36.73;97266.25;5073361;28;8881;-79
2023/10/27 11:28:48;;;;;;;;;4.60;4.00;;;;;21.62;36.54;97272.34;5073788;28;8859;-78
2023/10/27 11:31:27;;;;;;;;;4.00;4.00;;;;;21.68;36.52;97275.38;5053202;28;8888;-80
2023/10/27 11:33:57;;;;;;;;;3.00;2.60;;;;;21.51;36.81;97279.75;5018211;28;8849;-79
2023/10/27 11:36:27;;;;;;;;;1.00;1.00;;;;;21.45;37.25;97276.72;5050262;28;8855;-79
2023/10/27 11:38:57;;;;;;;;;3.00;3.00;;;;;21.55;36.77;97260.56;5065952;28;8858;-79
2023/10/27 11:41:26;;;;;;;;;2.00;2.00;;;;;21.53;36.86;97272.41;5053294;28;8873;-79
2023/10/27 11:43:56;;;;;;;;;1.20;1.20;;;;;21.61;37.30;97273.31;5069196;28;9004;-78
2023/10/27 11:46:25;;;;;;;;;2.00;2.00;;;;;21.67;36.68;97277.19;5070778;28;9580;-80
2023/10/27 11:48:54;;;;;;;;;3.60;3.60;;;;;21.84;36.68;97289.69;5056800;28;8934;-78
2023/10/27 11:51:23;;;;;;;;;2.60;2.60;;;;;21.99;36.37;97279.22;5048876;28;8868;-78
2023/10/27 11:53:52;;;;;;;;;1.80;1.80;;;;;21.85;36.58;97298.53;5049011;28;9591;-78
2023/10/27 11:56:21;;;;;;;;;4.40;3.60;;;;;21.98;36.26;97290.91;5033660;28;8864;-78
2023/10/27 11:58:50;;;;;;;;;4.00;4.00;;;;;22.01;36.00;97289.75;5003251;28;8965;-80